Time;durP1;ratioP1;P1;durP2;ratioP2;P2;SDS_P1;SDS_P2;PMS_P1;PMS_P2;Temp;Humidity;BMP_temperature;BMP_pressure;BME280_temperature;BME280_humidity;BME280_pressure;Samples;Min_cycle;Max_cycle;Signal;HPM_P1;HPM_P2
2022/07/11 00:00:25;;;;;;;1.10;0.40;;;;;;;17.96;44.19;100119.69;4396210;32;32014;-85
2022/07/11 00:02:53;;;;;;;3.17;0.30;;;;;;;17.95;44.22;100118.00;4400042;32;32235;-87
2022/07/11 00:05:21;;;;;;;1.55;0.40;;;;;;;17.64;45.50;100124.53;4408388;32;32967;-87
2022/07/11 00:07:49;;;;;;;0.20;0.20;;;;;;;17.80;44.86;100119.91;4402955;32;32994;-87
2022/07/11 00:10:17;;;;;;;2.55;0.60;;;;;;;17.82;44.82;100122.47;4393193;32;200653;-87
2022/07/11 00:12:47;;;;;;;1.55;0.30;;;;;;;17.83;44.86;100121.50;4387886;32;32408;-86
2022/07/11 00:15:14;;;;;;;1.17;0.70;;;;;;;17.55;45.63;100123.34;4402274;32;33101;-86
2022/07/11 00:17:43;;;;;;;3.33;0.50;;;;;;;17.74;45.28;100127.47;4390008;32;33016;-87
2022/07/11 00:20:11;;;;;;;0.75;0.30;;;;;;;17.67;45.46;100132.34;4402059;32;33902;-87
2022/07/11 00:22:39;;;;;;;1.48;0.40;;;;;;;17.94;44.87;100126.94;4405631;32;32657;-87
2022/07/11 00:25:08;;;;;;;0.82;0.22;;;;;;;17.79;45.14;100138.69;4406792;32;33923;-87
2022/07/11 00:27:36;;;;;;;1.05;0.30;;;;;;;17.67;45.24;100129.69;4408401;32;34718;-86
2022/07/11 00:30:05;;;;;;;1.33;0.40;;;;;;;17.40;46.12;100132.37;4408925;32;33140;-85
2022/07/11 00:32:34;;;;;;;0.70;0.30;;;;;;;17.43;46.27;100142.03;4403586;32;33936;-85
2022/07/11 00:35:04;;;;;;;1.92;0.40;;;;;;;17.40;46.44;100130.56;4418790;32;34644;-85
2022/07/11 00:37:33;;;;;;;2.80;1.20;;;;;;;17.27;47.15;100134.16;4417484;32;33728;-85
2022/07/11 00:40:02;;;;;;;2.40;0.35;;;;;;;17.27;46.88;100131.47;4402657;32;32540;-85
2022/07/11 00:42:30;;;;;;;1.25;0.40;;;;;;;17.23;47.11;100133.50;4406783;32;33088;-85
2022/07/11 00:44:59;;;;;;;2.70;0.43;;;;;;;17.07;47.52;100125.66;4391661;32;32596;-86
2022/07/11 00:47:28;;;;;;;1.65;0.37;;;;;;;17.22;46.99;100120.25;4403096;32;34147;-86
2022/07/11 00:49:55;;;;;;;1.92;0.50;;;;;;;17.11;47.52;100116.50;4389333;32;32546;-86
2022/07/11 00:52:23;;;;;;;1.95;0.43;;;;;;;17.25;47.43;100122.72;4384701;32;32797;-86
2022/07/11 00:54:52;;;;;;;1.27;0.37;;;;;;;16.76;48.87;100112.56;4413167;32;33642;-86
2022/07/11 00:57:19;;;;;;;3.85;0.77;;;;;;;17.15;47.85;100117.16;4394474;32;33394;-86
2022/07/11 00:59:48;;;;;;;2.08;0.40;;;;;;;17.12;47.89;100120.00;4401386;32;32500;-86
2022/07/11 01:02:16;;;;;;;0.37;0.37;;;;;;;17.20;47.58;100123.03;4389682;32;33661;-86
2022/07/11 01:04:44;;;;;;;1.33;0.45;;;;;;;17.46;47.03;100107.94;4400473;32;34330;-86
2022/07/11 01:07:13;;;;;;;5.82;0.60;;;;;;;17.37;47.08;100108.56;4389464;32;32401;-86
2022/07/11 01:09:41;;;;;;;1.50;0.50;;;;;;;17.23;47.83;100116.62;4399337;32;33537;-86
2022/07/11 01:12:10;;;;;;;0.75;0.50;;;;;;;17.17;47.81;100117.03;4398779;32;32521;-87
2022/07/11 01:14:38;;;;;;;2.58;0.40;;;;;;;17.37;47.36;100111.22;4401231;32;34592;-87
2022/07/11 01:17:06;;;;;;;1.10;0.60;;;;;;;17.43;47.15;100116.19;4400607;32;34248;-87
2022/07/11 01:19:34;;;;;;;1.30;0.28;;;;;;;17.31;47.55;100112.50;4391902;32;34163;-87
2022/07/11 01:22:06;;;;;;;2.10;0.35;;;;;;;17.64;46.58;100109.38;4407602;32;32784;-88
2022/07/11 01:24:34;;;;;;;1.08;0.40;;;;;;;17.53;46.94;100109.25;4387280;32;33425;-86
2022/07/11 01:27:02;;;;;;;2.92;0.62;;;;;;;17.26;47.82;100105.75;4399804;32;33930;-86
2022/07/11 01:29:30;;;;;;;2.72;0.68;;;;;;;17.72;46.59;100110.69;4404248;32;32605;-87
2022/07/11 01:31:59;;;;;;;0.62;0.40;;;;;;;17.51;47.33;100119.16;4390469;32;32261;-87
2022/07/11 01:34:28;;;;;;;2.33;0.82;;;;;;;17.35;47.67;100110.47;4408686;32;33903;-87
2022/07/11 01:36:55;;;;;;;3.25;0.68;;;;;;;17.53;47.25;100111.91;4399316;32;34034;-88
2022/07/11 01:39:24;;;;;;;0.65;0.40;;;;;;;17.50;47.41;100114.78;4401866;32;34029;-86
2022/07/11 01:41:53;;;;;;;1.02;0.43;;;;;;;17.43;47.74;100116.19;4408119;32;32905;-86
2022/07/11 01:44:22;;;;;;;0.52;0.47;;;;;;;17.50;47.70;100114.78;4399719;32;33659;-87
2022/07/11 01:46:51;;;;;;;2.37;0.40;;;;;;;17.21;48.72;100119.41;4404087;32;34159;-87
2022/07/11 01:49:19;;;;;;;1.60;0.50;;;;;;;17.36;47.99;100105.03;4414785;32;34157;-86
2022/07/11 01:51:48;;;;;;;0.50;0.35;;;;;;;17.21;48.57;100111.41;4411861;32;32079;-87
2022/07/11 01:54:16;;;;;;;1.60;0.70;;;;;;;17.11;48.98;100110.31;4397620;32;33267;-86
2022/07/11 01:56:44;;;;;;;3.45;0.75;;;;;;;16.82;49.75;100107.72;4401260;32;32143;-88
2022/07/11 01:59:11;;;;;;;0.93;0.60;;;;;;;16.88;49.52;100107.31;4406891;32;33552;-88
2022/07/11 02:01:40;;;;;;;2.22;0.65;;;;;;;17.18;48.87;100116.06;4400935;32;32276;-88
2022/07/11 02:04:08;;;;;;;4.82;0.70;;;;;;;17.19;48.71;100115.16;4398823;32;32443;-87
2022/07/11 02:06:36;;;;;;;1.98;0.40;;;;;;;17.24;48.44;100115.69;4401389;32;32701;-87
2022/07/11 02:09:04;;;;;;;2.25;0.60;;;;;;;16.56;50.53;100109.34;4405766;32;33337;-88
2022/07/11 02:11:32;;;;;;;2.37;0.80;;;;;;;17.19;48.73;100105.31;4397995;32;32851;-87
2022/07/11 02:14:02;;;;;;;1.65;0.80;;;;;;;17.18;48.64;100113.41;4401489;32;33299;-86
2022/07/11 02:16:32;;;;;;;1.00;0.50;;;;;;;17.27;48.49;100104.78;4418964;32;33236;-87
2022/07/11 02:19:03;;;;;;;1.80;0.70;;;;;;;17.09;49.33;100109.53;4395459;32;33830;-87
2022/07/11 02:21:33;;;;;;;2.03;0.90;;;;;;;17.21;48.80;100105.22;4404265;32;32783;-86
2022/07/11 02:24:03;;;;;;;1.67;0.40;;;;;;;17.33;48.40;100105.25;4420422;32;33580;-87
2022/07/11 02:26:31;;;;;;;1.58;0.93;;;;;;;16.69;50.27;100109.44;4401449;32;32663;-87
2022/07/11 02:28:59;;;;;;;3.80;0.95;;;;;;;17.00;49.56;100107.50;4406366;32;32529;-86
2022/07/11 02:31:28;;;;;;;10.10;1.15;;;;;;;16.97;49.50;100113.88;4392834;32;31717;-87
2022/07/11 02:33:56;;;;;;;2.37;0.60;;;;;;;16.97;49.51;100113.00;4377704;32;33713;-87
2022/07/11 02:36:24;;;;;;;1.67;0.70;;;;;;;16.99;49.42;100111.94;4402237;32;33333;-86
2022/07/11 02:38:52;;;;;;;0.77;0.52;;;;;;;16.86;49.86;100121.72;4401627;32;33834;-87
2022/07/11 02:41:20;;;;;;;2.05;1.10;;;;;;;17.11;49.31;100126.31;4405651;32;32861;-87
2022/07/11 02:43:49;;;;;;;1.35;0.70;;;;;;;16.75;50.18;100121.53;4405202;32;32807;-87
2022/07/11 02:46:17;;;;;;;1.40;0.45;;;;;;;16.67;50.62;100126.50;4410639;32;33938;-87
2022/07/11 02:48:45;;;;;;;2.92;0.60;;;;;;;16.88;49.86;100125.13;4393111;32;33559;-86
2022/07/11 02:51:13;;;;;;;2.65;0.62;;;;;;;16.63;50.42;100134.69;4400333;32;32353;-86
2022/07/11 02:53:41;;;;;;;2.10;0.68;;;;;;;16.74;50.26;100128.69;4402044;32;33313;-87
2022/07/11 02:56:09;;;;;;;2.20;0.80;;;;;;;16.58;50.83;100133.25;4402154;32;33831;-87
2022/07/11 02:58:37;;;;;;;2.37;0.85;;;;;;;16.56;51.02;100130.66;4407278;32;33742;-87
2022/07/11 03:01:05;;;;;;;1.05;0.62;;;;;;;16.79;50.18;100121.25;4394428;32;33507;-87
2022/07/11 03:03:33;;;;;;;0.73;0.50;;;;;;;16.30;51.86;100123.47;4399056;32;33515;-87
2022/07/11 03:06:02;;;;;;;3.78;0.80;;;;;;;16.51;51.25;100123.91;4400635;32;33633;-88
2022/07/11 03:08:30;;;;;;;2.45;0.80;;;;;;;16.51;51.27;100121.25;4399907;32;34704;-87
2022/07/11 03:10:59;;;;;;;1.67;0.55;;;;;;;16.60;50.90;100126.84;4386117;32;31814;-87
2022/07/11 03:13:35;;;;;;;1.12;0.60;;;;;;;16.94;49.78;100113.22;4401546;32;34159;-87
2022/07/11 03:16:04;;;;;;;2.12;0.55;;;;;;;16.77;49.98;100122.31;4399248;32;33453;-87
2022/07/11 03:18:33;;;;;;;4.18;0.60;;;;;;;16.82;49.78;100114.87;4391437;32;34295;-88
2022/07/11 03:21:09;;;;;;;3.03;0.75;;;;;;;16.66;50.05;100112.28;4385300;32;32510;-87
2022/07/11 03:23:36;;;;;;;2.22;0.70;;;;;;;16.51;50.81;100121.25;4395045;32;33277;-88
2022/07/11 03:26:05;;;;;;;2.28;0.43;;;;;;;16.63;50.48;100112.50;4401572;32;33306;-88
2022/07/11 03:28:33;;;;;;;1.55;0.52;;;;;;;16.43;51.11;100120.91;4414252;32;33514;-88
2022/07/11 03:31:03;;;;;;;2.55;0.65;;;;;;;16.69;50.29;100119.25;4399922;32;33811;-88
2022/07/11 03:33:32;;;;;;;3.40;0.60;;;;;;;16.79;49.96;100115.91;4396076;32;33057;-88
2022/07/11 03:36:00;;;;;;;3.90;0.62;;;;;;;16.32;51.29;100119.75;4399889;32;33496;-88
2022/07/11 03:38:28;;;;;;;2.22;0.70;;;;;;;16.41;51.20;100122.78;4405177;32;33122;-88
2022/07/11 03:40:57;;;;;;;5.22;0.68;;;;;;;16.54;50.89;100126.41;4400473;32;32831;-88
2022/07/11 03:43:31;;;;;;;2.05;0.60;;;;;;;16.79;50.36;100123.91;4394102;32;33815;-88
2022/07/11 03:46:00;;;;;;;4.10;0.80;;;;;;;16.91;50.43;100132.09;4406325;32;33505;-88
2022/07/11 03:48:29;;;;;;;6.37;1.33;;;;;;;17.22;48.97;100128.25;4399855;32;32504;-88
2022/07/11 03:50:57;;;;;;;3.87;1.00;;;;;;;17.58;48.42;100125.81;4401743;32;32457;-87
2022/07/11 03:53:27;;;;;;;0.90;0.65;;;;;;;17.39;49.33;100123.53;4392986;32;33857;-88
2022/07/11 03:55:54;;;;;;;4.95;1.12;;;;;;;17.53;49.00;100133.28;4408083;32;33747;-87
2022/07/11 03:58:22;;;;;;;4.45;0.68;;;;;;;17.88;47.74;100130.06;4412455;32;34011;-87
2022/07/11 04:00:51;;;;;;;2.25;0.57;;;;;;;17.78;48.20;100134.31;4402488;32;33153;-88
2022/07/11 04:03:20;;;;;;;3.50;0.62;;;;;;;17.74;48.82;100131.00;4405029;32;34163;-88
2022/07/11 04:05:48;;;;;;;2.08;0.95;;;;;;;17.72;48.82;100126.69;4394898;32;34908;-85
2022/07/11 04:08:16;;;;;;;1.25;0.73;;;;;;;17.71;48.85;100132.97;4388910;32;31800;-86
2022/07/11 04:10:45;;;;;;;3.08;0.60;;;;;;;18.09;46.89;100131.25;4403832;32;31981;-86
2022/07/11 04:13:18;;;;;;;2.47;0.82;;;;;;;17.62;49.19;100138.00;4404778;32;34319;-86
2022/07/11 04:15:47;;;;;;;3.72;0.62;;;;;;;17.64;50.10;100141.41;4397967;32;35110;-86
2022/07/11 04:18:15;;;;;;;3.30;0.65;;;;;;;17.52;49.63;100136.91;4420611;32;33961;-87
2022/07/11 04:20:43;;;;;;;4.05;0.88;;;;;;;17.36;49.91;100147.75;4395115;32;32935;-87
2022/07/11 04:23:13;;;;;;;5.10;0.60;;;;;;;18.07;47.80;100138.50;4407602;32;34086;-88
2022/07/11 04:25:41;;;;;;;1.80;0.70;;;;;;;17.98;48.38;100143.62;4402106;32;33801;-88
2022/07/11 04:28:10;;;;;;;2.15;0.55;;;;;;;17.99;48.45;100146.19;4402353;32;34103;-88
2022/07/11 04:30:38;;;;;;;4.22;0.73;;;;;;;18.29;47.94;100147.72;4392686;32;32873;-88
2022/07/11 04:33:08;;;;;;;3.15;0.90;;;;;;;18.26;47.96;100139.91;4407470;32;33899;-87
2022/07/11 04:35:43;;;;;;;6.07;0.90;;;;;;;18.43;47.84;100140.44;4409005;32;34095;-86
2022/07/11 04:38:11;;;;;;;1.20;0.70;;;;;;;18.54;47.46;100142.34;4408618;32;33679;-86
2022/07/11 04:40:49;;;;;;;2.28;0.57;;;;;;;18.77;46.30;100137.19;4383908;32;33808;-86
2022/07/11 04:43:24;;;;;;;1.20;0.60;;;;;;;18.87;46.11;100135.56;4393016;32;34673;-86
2022/07/11 04:45:52;;;;;;;4.10;1.58;;;;;;;19.41;45.11;100144.00;4395334;32;33857;-88
2022/07/11 04:48:27;;;;;;;3.70;0.82;;;;;;;19.39;44.58;100140.59;4409440;32;33921;-88
2022/07/11 04:50:55;;;;;;;1.60;0.50;;;;;;;19.40;44.75;100141.44;4401923;32;33311;-88
2022/07/11 04:53:23;;;;;;;3.08;0.70;;;;;;;19.30;45.01;100145.78;4408615;32;32962;-88
2022/07/11 04:55:52;;;;;;;4.82;0.57;;;;;;;19.50;44.31;100147.81;4407590;32;33004;-86
2022/07/11 04:58:23;;;;;;;4.97;0.70;;;;;;;19.22;45.13;100150.84;4392949;32;33004;-86
2022/07/11 05:00:53;;;;;;;1.17;0.68;;;;;;;19.42;44.45;100150.22;4397118;32;32367;-86
2022/07/11 05:03:23;;;;;;;2.90;0.70;;;;;;;19.61;44.20;100155.94;4405450;32;34169;-87
2022/07/11 05:05:51;;;;;;;3.17;0.80;;;;;;;19.62;44.60;100151.44;4413520;32;33684;-87
2022/07/11 05:08:19;;;;;;;5.87;0.70;;;;;;;19.20;45.10;100150.97;4406776;32;31581;-87
2022/07/11 05:10:49;;;;;;;8.27;1.23;;;;;;;19.38;44.28;100152.28;4409798;32;33141;-87
2022/07/11 05:13:20;;;;;;;4.07;0.93;;;;;;;19.20;45.81;100150.97;4408120;32;32553;-87
2022/07/11 05:15:48;;;;;;;2.37;1.10;;;;;;;19.31;44.78;100152.84;4393901;32;32956;-88
2022/07/11 05:18:16;;;;;;;2.70;0.80;;;;;;;19.10;45.65;100149.94;4421845;32;33365;-86
2022/07/11 05:20:46;;;;;;;4.95;1.25;;;;;;;19.28;44.90;100159.28;4417198;32;33316;-87
2022/07/11 05:23:16;;;;;;;5.03;1.08;;;;;;;19.26;45.04;100155.00;4400087;32;33617;-85
2022/07/11 05:25:45;;;;;;;2.47;0.62;;;;;;;19.17;45.31;100160.06;4392410;32;34853;-86
2022/07/11 05:28:13;;;;;;;0.98;0.77;;;;;;;19.08;45.81;100165.22;4415585;32;33978;-87
2022/07/11 05:30:43;;;;;;;7.45;1.20;;;;;;;19.12;44.96;100170.25;4420994;32;32244;-86
2022/07/11 05:33:11;;;;;;;4.22;0.75;;;;;;;18.94;45.80;100166.22;4412983;32;34024;-87
2022/07/11 05:35:40;;;;;;;8.68;1.10;;;;;;;18.93;46.01;100167.22;4421282;32;34735;-86
2022/07/11 05:38:08;;;;;;;4.65;1.37;;;;;;;18.86;46.10;100171.31;4392708;32;32643;-87
2022/07/11 05:40:36;;;;;;;1.33;0.70;;;;;;;18.83;45.96;100168.84;4404377;32;32665;-87
2022/07/11 05:43:07;;;;;;;7.53;0.98;;;;;;;19.06;46.02;100169.84;4416619;32;34226;-87
2022/07/11 05:45:36;;;;;;;3.05;0.68;;;;;;;19.54;45.38;100176.06;4397105;32;31363;-87
2022/07/11 05:48:05;;;;;;;5.82;0.93;;;;;;;19.55;44.60;100171.56;4401370;32;32027;-87
2022/07/11 05:50:34;;;;;;;3.03;0.90;;;;;;;19.76;44.71;100177.19;4390717;32;32856;-87
2022/07/11 05:53:05;;;;;;;3.65;1.05;;;;;;;19.72;44.12;100170.34;4379676;32;32749;-87
2022/07/11 05:55:36;;;;;;;2.70;0.70;;;;;;;19.66;44.27;100177.88;4370170;32;33024;-87
2022/07/11 05:58:05;;;;;;;3.70;0.85;;;;;;;19.80;44.09;100181.34;4396814;32;32960;-87
2022/07/11 06:00:34;;;;;;;5.80;0.88;;;;;;;19.85;44.38;100192.56;4387207;32;33649;-86
2022/07/11 06:03:04;;;;;;;4.47;0.82;;;;;;;19.85;44.89;100184.53;4371587;32;33325;-86
2022/07/11 06:05:32;;;;;;;3.37;0.93;;;;;;;20.12;44.14;100182.38;4402022;32;33614;-86
2022/07/11 06:10:53;;;;;;;5.65;2.45;;;;;;;20.28;42.86;100186.56;4390415;32;30489;-87
2022/07/11 06:13:22;;;;;;;3.40;1.12;;;;;;;20.30;43.51;100192.66;4382426;32;33144;-86
2022/07/11 06:15:50;;;;;;;5.47;1.10;;;;;;;19.99;43.45;100189.69;4375132;32;32913;-86
2022/07/11 06:18:20;;;;;;;5.80;0.80;;;;;;;19.66;43.97;100196.63;4389556;32;32977;-86
2022/07/11 06:20:50;;;;;;;1.93;0.70;;;;;;;19.66;44.54;100193.94;4395103;32;32745;-86
2022/07/11 06:23:18;;;;;;;3.15;0.82;;;;;;;20.12;43.49;100194.94;4365383;32;32833;-87
2022/07/11 06:25:46;;;;;;;2.00;0.80;;;;;;;20.36;44.06;100194.84;4397796;32;33050;-86
2022/07/11 06:28:16;;;;;;;2.45;0.57;;;;;;;20.62;45.01;100188.34;4387389;32;34776;-85
2022/07/11 06:30:44;;;;;;;3.83;1.30;;;;;;;20.90;42.97;100191.50;4380576;32;31869;-86
2022/07/11 06:33:16;;;;;;;1.85;1.10;;;;;;;20.89;42.17;100195.16;4401722;32;31383;-86
2022/07/11 06:35:45;;;;;;;5.70;1.33;;;;;;;21.28;41.76;100192.91;4389396;32;32539;-87
2022/07/11 06:38:14;;;;;;;2.78;1.00;;;;;;;21.32;41.00;100189.03;4376460;32;33303;-88
2022/07/11 06:40:44;;;;;;;1.73;0.70;;;;;;;21.55;41.11;100185.25;4373645;32;32356;-88
2022/07/11 06:43:14;;;;;;;2.60;0.98;;;;;;;21.71;40.08;100193.75;4387439;32;32620;-82
2022/07/11 06:45:42;;;;;;;3.62;1.12;;;;;;;21.74;39.44;100195.31;4391055;32;34130;-82
2022/07/11 06:48:11;;;;;;;7.90;1.20;;;;;;;21.64;40.05;100194.41;4388629;32;32994;-82
2022/07/11 06:50:42;;;;;;;4.32;0.82;;;;;;;21.41;40.71;100199.87;4406728;32;32235;-83
2022/07/11 06:53:12;;;;;;;3.40;1.00;;;;;;;21.75;41.27;100202.44;4405264;32;34298;-82
2022/07/11 06:55:43;;;;;;;5.43;1.17;;;;;;;21.81;39.10;100203.75;4403642;32;32938;-82
2022/07/11 06:58:12;;;;;;;6.43;1.12;;;;;;;21.99;39.98;100188.75;4402125;32;33169;-82
2022/07/11 07:00:55;;;;;;;4.35;0.60;;;;;;;21.82;39.10;100197.38;4412471;32;32274;-82
2022/07/11 07:03:24;;;;;;;3.05;0.90;;;;;;;21.74;40.09;100203.37;4400497;32;36607;-83
2022/07/11 07:05:55;;;;;;;4.37;1.20;;;;;;;22.24;38.85;100201.81;4406052;32;32750;-83
2022/07/11 07:08:26;;;;;;;2.00;0.88;;;;;;;22.22;37.66;100201.12;4409855;32;33082;-83
2022/07/11 07:10:55;;;;;;;3.58;1.05;;;;;;;21.97;38.16;100199.59;4391830;32;33756;-83
2022/07/11 07:13:31;;;;;;;7.47;0.70;;;;;;;22.27;38.37;100202.56;4403402;32;33489;-83
2022/07/11 07:16:03;;;;;;;4.32;1.10;;;;;;;22.37;38.08;100203.47;4404444;32;32842;-83
2022/07/11 07:18:32;;;;;;;2.10;0.90;;;;;;;22.26;38.16;100203.53;4402157;32;34237;-83
2022/07/11 07:21:00;;;;;;;2.08;0.60;;;;;;;22.27;38.01;100208.78;4416377;32;35470;-83
2022/07/11 07:23:30;;;;;;;2.37;1.08;;;;;;;22.24;38.43;100209.03;4386815;32;33306;-83
2022/07/11 07:25:59;;;;;;;3.90;0.93;;;;;;;22.55;37.84;100201.00;4404623;32;32669;-83
2022/07/11 07:28:30;;;;;;;4.03;1.37;;;;;;;22.88;37.38;100197.16;4404304;32;32263;-83
2022/07/11 07:31:00;;;;;;;2.47;0.70;;;;;;;22.78;36.97;100198.97;4403362;32;32648;-83
2022/07/11 07:33:32;;;;;;;1.52;0.80;;;;;;;22.56;37.29;100198.19;4397147;32;32909;-83
2022/07/11 07:36:13;;;;;;;3.12;1.00;;;;;;;22.40;37.64;100197.81;4396949;32;33332;-83
2022/07/11 07:38:43;;;;;;;2.80;0.82;;;;;;;22.22;38.01;100200.25;4399867;32;33579;-83
2022/07/11 07:41:15;;;;;;;3.45;0.80;;;;;;;22.18;37.22;100204.19;4399721;32;33808;-84
2022/07/11 07:43:58;;;;;;;1.83;0.70;;;;;;;22.03;37.99;100200.94;4406586;32;35280;-83
2022/07/11 07:46:31;;;;;;;4.83;0.90;;;;;;;22.30;38.44;100203.13;4391360;32;33189;-83
2022/07/11 07:48:59;;;;;;;1.92;0.85;;;;;;;22.17;37.64;100197.09;4417995;32;34201;-83
2022/07/11 07:51:28;;;;;;;1.98;0.80;;;;;;;22.41;37.64;100195.00;4401472;32;33181;-82
2022/07/11 07:53:57;;;;;;;2.12;0.70;;;;;;;22.29;37.66;100196.03;4401553;32;33844;-83
2022/07/11 07:56:28;;;;;;;7.50;1.40;;;;;;;22.58;36.72;100195.34;4402054;32;33079;-83
2022/07/11 07:58:59;;;;;;;5.37;2.08;;;;;;;23.00;36.65;100196.13;4401882;32;33098;-83
2022/07/11 08:01:36;;;;;;;2.37;0.80;;;;;;;23.18;36.79;100183.69;4414794;32;33800;-83
2022/07/11 08:04:10;;;;;;;3.05;0.95;;;;;;;23.23;35.93;100181.44;4403997;32;33823;-83
2022/07/11 08:06:40;;;;;;;10.70;1.20;;;;;;;23.17;35.83;100173.06;4403661;32;32791;-83
2022/07/11 08:09:09;;;;;;;4.53;0.90;;;;;;;23.32;36.02;100179.75;4402595;32;33119;-83
2022/07/11 08:11:38;;;;;;;2.55;0.60;;;;;;;23.60;34.65;100170.00;4403380;32;33404;-84
2022/07/11 08:14:09;;;;;;;3.08;0.90;;;;;;;23.61;35.60;100174.38;4401326;32;34285;-85
2022/07/11 08:16:39;;;;;;;2.75;1.02;;;;;;;23.84;35.23;100171.44;4415982;32;34304;-84
2022/07/11 08:19:11;;;;;;;4.05;0.68;;;;;;;24.14;34.14;100163.16;4397959;32;32726;-84
2022/07/11 08:21:41;;;;;;;5.03;1.23;;;;;;;24.51;32.83;100167.78;4412283;32;32740;-84
2022/07/11 08:24:10;;;;;;;4.12;0.80;;;;;;;24.40;33.26;100170.62;4397357;32;32537;-85
2022/07/11 08:26:40;;;;;;;4.30;0.90;;;;;;;24.25;32.76;100173.75;4403605;32;32682;-84
2022/07/11 08:29:08;;;;;;;1.87;0.60;;;;;;;23.64;33.49;100170.56;4417941;32;33049;-84
2022/07/11 08:31:37;;;;;;;5.07;1.30;;;;;;;23.61;32.61;100174.38;4414677;32;31509;-85
2022/07/11 08:34:11;;;;;;;3.80;0.82;;;;;;;23.51;32.98;100171.69;4381561;32;31183;-85
2022/07/11 08:36:45;;;;;;;4.22;0.62;;;;;;;23.43;32.98;100181.47;4401461;32;33265;-84
2022/07/11 08:39:15;;;;;;;9.82;1.05;;;;;;;23.45;33.28;100174.06;4411517;32;34414;-84
2022/07/11 08:41:45;;;;;;;5.75;0.93;;;;;;;23.98;32.88;100168.31;4404045;32;32877;-85
2022/07/11 08:44:15;;;;;;;2.75;0.75;;;;;;;24.30;31.62;100167.09;4413664;32;33192;-85
2022/07/11 08:46:46;;;;;;;4.55;0.70;;;;;;;24.64;31.39;100162.03;4401441;32;34490;-84
2022/07/11 08:49:15;;;;;;;6.07;0.70;;;;;;;24.63;32.07;100165.72;4400664;32;33636;-85
2022/07/11 08:51:46;;;;;;;6.43;0.93;;;;;;;24.75;32.18;100159.16;4400481;32;31219;-85
2022/07/11 08:54:18;;;;;;;2.70;1.30;;;;;;;24.70;32.33;100165.00;4400900;32;33351;-84
2022/07/11 08:56:49;;;;;;;1.77;1.05;;;;;;;24.86;31.86;100155.37;4391096;32;33767;-84
2022/07/11 08:59:21;;;;;;;1.75;0.50;;;;;;;24.98;30.38;100159.59;4400832;32;33943;-85
2022/07/11 09:01:53;;;;;;;3.53;0.75;;;;;;;25.25;29.04;100153.31;4396432;32;33635;-84
2022/07/11 09:04:29;;;;;;;2.35;1.15;;;;;;;25.24;27.76;100149.78;4382602;32;33577;-87
2022/07/11 09:07:00;;;;;;;4.20;1.00;;;;;;;24.77;28.88;100149.88;4374179;32;32936;-85
2022/07/11 09:09:31;;;;;;;4.18;1.73;;;;;;;24.62;29.80;100153.22;4376451;32;32859;-85
2022/07/11 09:12:00;;;;;;;15.15;1.15;;;;;;;24.65;30.10;100148.41;4372220;32;32450;-85
2022/07/11 09:14:32;;;;;;;5.90;1.08;;;;;;;24.54;30.27;100140.47;4361550;32;33326;-86
2022/07/11 09:17:04;;;;;;;2.30;0.80;;;;;;;24.37;29.63;100138.56;4399182;32;31584;-85
2022/07/11 09:19:34;;;;;;;4.82;0.98;;;;;;;24.56;28.88;100135.78;4382346;32;33696;-85
2022/07/11 09:25:20;;;;;;;4.50;1.33;;;;;;;24.72;30.19;100141.38;4388265;32;32461;-86
2022/07/11 09:28:05;;;;;;;2.55;0.73;;;;;;;25.16;29.11;100130.81;4397110;32;33634;-85
2022/07/11 09:30:43;;;;;;;4.43;0.77;;;;;;;25.45;28.60;100129.72;4402678;32;33246;-85
2022/07/11 09:33:13;;;;;;;1.87;0.70;;;;;;;25.28;27.57;100129.56;4386804;32;32477;-86
2022/07/11 09:35:45;;;;;;;5.15;0.45;;;;;;;25.48;28.05;100130.25;4389474;32;33411;-85
2022/07/11 09:38:16;;;;;;;1.98;0.70;;;;;;;25.77;26.93;100112.94;4386213;32;34316;-85
2022/07/11 09:40:48;;;;;;;3.80;0.73;;;;;;;25.29;27.29;100130.41;4398051;32;34446;-86
2022/07/11 09:43:28;;;;;;;7.43;1.02;;;;;;;25.68;26.43;100127.38;4373853;32;33562;-85
2022/07/11 09:46:07;;;;;;;3.25;0.65;;;;;;;25.90;26.96;100112.53;4374611;32;32645;-85
2022/07/11 09:48:36;;;;;;;1.80;0.62;;;;;;;26.04;26.16;100114.66;4373940;32;32911;-84
2022/07/11 09:51:08;;;;;;;4.65;0.88;;;;;;;26.27;27.17;100115.84;4377634;32;34809;-85
2022/07/11 09:53:56;;;;;;;3.87;0.90;;;;;;;26.24;27.21;100115.28;4401330;32;34395;-86
2022/07/11 09:56:34;;;;;;;4.18;0.70;;;;;;;26.14;26.58;100111.84;4378445;32;33450;-85
2022/07/11 09:59:23;;;;;;;3.95;0.60;;;;;;;25.77;27.53;100111.09;4362260;32;33162;-85
2022/07/11 10:02:06;;;;;;;4.18;0.43;;;;;;;26.29;26.76;100104.84;4388202;32;32479;-86
2022/07/11 10:04:41;;;;;;;4.47;0.70;;;;;;;26.66;23.33;100104.53;4410710;32;31999;-86
2022/07/11 10:07:09;;;;;;;6.78;0.70;;;;;;;26.69;23.86;100087.13;4389481;32;33266;-87
2022/07/11 10:09:39;;;;;;;8.02;0.93;;;;;;;26.22;23.70;100099.22;4389751;32;33631;-86
2022/07/11 10:12:09;;;;;;;1.45;0.57;;;;;;;25.44;24.75;100098.28;4396346;32;33385;-85
2022/07/11 10:14:39;;;;;;;5.45;0.75;;;;;;;25.74;25.13;100105.97;4383737;32;32798;-86
2022/07/11 10:17:12;;;;;;;2.50;0.75;;;;;;;25.77;25.88;100100.25;4400593;32;33953;-85
2022/07/11 10:19:50;;;;;;;2.55;0.82;;;;;;;26.01;26.17;100101.44;4382015;32;33899;-85
2022/07/11 10:22:58;;;;;;;8.20;1.48;;;;;;;25.73;26.41;100096.16;4398691;32;34620;-85
2022/07/11 10:26:00;;;;;;;4.78;1.20;;;;;;;25.49;25.80;100104.06;4388321;32;32852;-85
2022/07/11 10:28:50;;;;;;;3.22;1.02;;;;;;;25.28;25.58;100107.94;4371162;32;32977;-85
2022/07/11 10:31:21;;;;;;;4.75;0.80;;;;;;;25.35;24.79;100108.16;4387877;32;32567;-85
2022/07/11 10:34:03;;;;;;;4.70;0.93;;;;;;;25.28;25.22;100107.94;4384080;32;34707;-85
2022/07/11 10:36:34;;;;;;;6.75;1.27;;;;;;;25.64;25.81;100097.13;4387589;32;32540;-85
2022/07/11 10:39:26;;;;;;;7.75;1.00;;;;;;;25.86;25.63;100092.22;4383391;32;33212;-85
2022/07/11 10:42:01;;;;;;;8.13;1.05;;;;;;;26.04;27.64;100082.19;4384616;32;33368;-85
2022/07/11 10:44:51;;;;;;;1.30;0.57;;;;;;;26.49;25.69;100087.38;4388775;32;33134;-85
2022/07/11 10:47:49;;;;;;;4.93;0.80;;;;;;;26.72;25.27;100082.22;4394616;32;32380;-85
2022/07/11 10:50:38;;;;;;;4.37;0.65;;;;;;;26.60;23.77;100083.53;4379888;32;33375;-85
2022/07/11 10:53:10;;;;;;;4.72;0.90;;;;;;;26.62;24.43;100076.06;4375378;32;33314;-85
2022/07/11 10:56:01;;;;;;;1.90;0.77;;;;;;;26.24;24.59;100080.94;4387826;32;34231;-85
2022/07/11 10:58:31;;;;;;;4.55;0.85;;;;;;;26.69;24.52;100070.87;4382988;32;33757;-85
2022/07/11 11:01:13;;;;;;;11.30;2.08;;;;;;;26.88;25.01;100064.31;4379665;32;33552;-85
2022/07/11 11:03:45;;;;;;;;;;;;;;;27.24;24.15;100067.63;4381881;32;33483;-85
2022/07/11 11:06:20;;;;;;;2.25;0.60;;;;;;;27.57;23.84;100076.59;4396543;32;34502;-86
2022/07/11 11:09:02;;;;;;;9.27;1.12;;;;;;;27.73;26.27;100063.09;4383153;32;35797;-86
2022/07/11 11:11:36;;;;;;;1.90;0.80;;;;;;;27.61;24.71;100063.56;4372972;32;33274;-86
2022/07/11 11:14:22;;;;;;;7.72;0.82;;;;;;;27.08;24.38;100070.28;4386088;32;34437;-86
2022/07/11 11:17:36;;;;;;;9.65;1.12;;;;;;;27.21;25.84;100063.41;4387141;32;34188;-85
2022/07/11 11:20:06;;;;;;;4.40;1.00;;;;;;;27.30;26.82;100066.97;4397476;32;33539;-86
2022/07/11 11:22:38;;;;;;;9.38;1.90;;;;;;;27.28;26.49;100067.13;4384946;32;33717;-86
2022/07/11 11:25:14;;;;;;;2.40;0.93;;;;;;;26.96;24.71;100067.03;4396588;32;34743;-86
2022/07/11 11:28:03;;;;;;;3.45;0.90;;;;;;;26.77;25.02;100066.31;4383592;32;33772;-86
2022/07/11 11:30:53;;;;;;;3.15;0.88;;;;;;;26.76;24.69;100056.50;4382181;32;35136;-85
2022/07/11 11:33:37;;;;;;;3.72;0.52;;;;;;;26.78;25.01;100067.19;4370894;32;33484;-86
2022/07/11 11:36:09;;;;;;;3.78;0.62;;;;;;;26.51;24.80;100073.69;4376874;32;33352;-86
2022/07/11 11:38:42;;;;;;;3.05;0.62;;;;;;;26.64;24.08;100074.06;4382968;32;34532;-86
2022/07/11 11:41:13;;;;;;;6.90;0.60;;;;;;;26.52;24.71;100080.78;4387593;32;33958;-86
2022/07/11 11:43:45;;;;;;;;;;;;;;;26.18;24.99;100076.19;4376293;32;33283;-86
2022/07/11 11:46:13;;;;;;;2.80;0.90;;;;;;;26.36;24.67;100080.69;4387634;32;32889;-86
2022/07/11 11:48:45;;;;;;;3.65;0.93;;;;;;;26.42;24.59;100082.75;4384133;32;33225;-86
2022/07/11 11:51:18;;;;;;;1.87;0.60;;;;;;;26.12;24.97;100081.41;4395787;32;32589;-86